createdAt,value
2023-01-25T00:01:07.015Z,1.40
2023-01-25T00:06:11.445Z,1.40
2023-01-25T00:11:17.145Z,1.50
2023-01-25T00:16:22.311Z,1.40
2023-01-25T00:21:26.350Z,1.40
2023-01-25T00:26:31.440Z,1.40
2023-01-25T00:31:49.693Z,1.30
2023-01-25T00:36:57.301Z,1.20
2023-01-25T00:42:00.859Z,1.30
2023-01-25T00:47:05.989Z,1.40
2023-01-25T00:52:12.653Z,1.30
2023-01-25T00:57:17.017Z,1.30
2023-01-25T01:02:22.045Z,1.20
2023-01-25T01:07:25.836Z,1.30
2023-01-25T01:12:29.577Z,1.40
2023-01-25T01:17:34.907Z,1.40
2023-01-25T01:22:39.011Z,1.30
2023-01-25T01:27:42.974Z,1.30
2023-01-25T01:32:48.052Z,1.30
2023-01-25T01:37:51.754Z,1.40
2023-01-25T01:43:00.813Z,1.40
2023-01-25T01:48:11.690Z,1.40
2023-01-25T01:53:15.974Z,1.40
2023-01-25T01:58:20.302Z,1.30
2023-01-25T02:03:26.154Z,1.30
2023-01-25T02:08:33.079Z,1.30
2023-01-25T02:13:37.933Z,1.40
2023-01-25T02:18:44.159Z,1.40
2023-01-25T02:23:54.227Z,1.30
2023-01-25T02:29:03.146Z,1.30
2023-01-25T02:34:06.559Z,1.30
2023-01-25T02:39:13.621Z,1.40
2023-01-25T02:44:23.766Z,1.30
2023-01-25T02:49:27.743Z,1.20
2023-01-25T02:54:31.691Z,1.40
2023-01-25T02:59:36.932Z,1.40
2023-01-25T03:04:40.662Z,1.40
2023-01-25T03:09:45.382Z,1.40
2023-01-25T03:14:50.067Z,1.40
2023-01-25T03:19:55.557Z,1.50
2023-01-25T03:25:00.965Z,1.50
2023-01-25T03:30:09.529Z,1.40
2023-01-25T03:35:13.326Z,1.40
2023-01-25T03:40:17.303Z,1.40
2023-01-25T03:45:27.579Z,1.40
2023-01-25T03:50:32.257Z,1.30
2023-01-25T03:55:35.939Z,1.30
2023-01-25T04:00:40.793Z,1.30
2023-01-25T04:05:45.492Z,1.30
2023-01-25T04:10:53.665Z,1.30
2023-01-25T04:15:59.273Z,1.40
2023-01-25T04:21:25.966Z,1.30
2023-01-25T04:26:30.023Z,1.40
2023-01-25T04:31:38.548Z,1.30
2023-01-25T04:36:43.644Z,1.30
2023-01-25T04:41:47.316Z,1.40
2023-01-25T04:46:52.194Z,1.30
2023-01-25T04:51:55.951Z,1.40
2023-01-25T04:57:01.233Z,1.40
2023-01-25T05:02:06.995Z,1.40
2023-01-25T05:07:11.361Z,1.40
2023-01-25T05:12:15.594Z,1.50
2023-01-25T05:17:31.662Z,1.40
2023-01-25T05:22:36.948Z,1.50
2023-01-25T05:27:40.621Z,1.50
2023-01-25T05:33:13.959Z,1.40
2023-01-25T05:38:17.624Z,1.50
2023-01-25T05:43:23.624Z,1.60
2023-01-25T05:48:28.340Z,1.70
2023-01-25T05:53:32.476Z,1.70
2023-01-25T05:58:36.743Z,1.70
2023-01-25T06:03:41.712Z,1.60
2023-01-25T06:08:45.481Z,1.70
2023-01-25T06:13:49.792Z,1.60
2023-01-25T06:18:54.499Z,1.70
2023-01-25T06:24:16.453Z,1.60
2023-01-25T06:29:20.070Z,1.70
2023-01-25T06:34:25.437Z,1.70
2023-01-25T06:39:30.645Z,1.70
2023-01-25T06:44:34.900Z,1.70
2023-01-25T06:49:39.610Z,1.70
2023-01-25T06:54:42.974Z,1.70
2023-01-25T06:59:46.334Z,1.80
2023-01-25T07:04:50.993Z,1.70
2023-01-25T07:09:55.146Z,1.90
2023-01-25T07:14:58.973Z,1.90
2023-01-25T07:20:04.141Z,2.00
2023-01-25T07:25:08.842Z,1.90
2023-01-25T07:30:13.405Z,2.00
2023-01-25T07:35:18.497Z,1.90
2023-01-25T07:40:24.469Z,2.00
2023-01-25T07:45:31.049Z,2.00
2023-01-25T07:50:35.821Z,2.00
2023-01-25T07:55:39.521Z,2.00
2023-01-25T08:00:42.911Z,2.00
2023-01-25T08:05:48.001Z,2.00
2023-01-25T08:10:51.582Z,2.10
2023-01-25T08:15:55.399Z,2.00
2023-01-25T08:21:01.863Z,2.10
2023-01-25T08:26:06.381Z,2.10
2023-01-25T08:31:11.767Z,2.20
2023-01-25T08:36:18.971Z,2.20
2023-01-25T08:41:23.278Z,2.30
2023-01-25T08:46:30.509Z,2.30
2023-01-25T08:51:38.408Z,2.40
2023-01-25T08:56:43.275Z,2.40
2023-01-25T09:01:47.259Z,2.30
2023-01-25T09:06:52.365Z,2.30
2023-01-25T09:11:56.281Z,2.30
2023-01-25T09:17:00.560Z,2.10
2023-01-25T09:22:05.832Z,2.20
2023-01-25T09:27:09.377Z,2.20
2023-01-25T09:32:13.260Z,2.20
2023-01-25T09:37:28.487Z,2.10
2023-01-25T09:42:45.705Z,2.00
2023-01-25T09:47:55.881Z,2.10
2023-01-25T09:53:32.103Z,2.10
2023-01-25T09:58:39.502Z,2.30
2023-01-25T10:03:50.202Z,2.30
2023-01-25T10:09:00.865Z,2.30
2023-01-25T10:14:13.464Z,2.30
2023-01-25T10:19:22.712Z,2.40
2023-01-25T10:24:55.785Z,2.00
2023-01-25T10:30:02.617Z,2.00
2023-01-25T10:35:25.678Z,2.10
2023-01-25T10:40:46.244Z,2.20
2023-01-25T10:45:50.477Z,2.20
2023-01-25T10:50:55.108Z,2.10
2023-01-25T10:56:20.623Z,2.20
2023-01-25T11:01:25.583Z,2.30
2023-01-25T11:06:29.967Z,2.10
2023-01-25T11:11:38.966Z,1.90
2023-01-25T11:16:47.984Z,2.00
2023-01-25T11:21:53.070Z,2.20
2023-01-25T11:32:25.927Z,2.20
2023-01-25T11:37:39.319Z,2.10
2023-01-25T11:42:58.452Z,2.10
2023-01-25T11:48:33.608Z,2.20
2023-01-25T11:53:51.005Z,2.20
2023-01-25T11:59:12.551Z,2.00
2023-01-25T12:04:51.959Z,2.00
2023-01-25T12:10:08.777Z,2.10
2023-01-25T12:15:34.206Z,2.10
2023-01-25T12:20:46.920Z,2.10
2023-01-25T12:26:04.183Z,2.10
2023-01-25T12:31:14.731Z,2.20
2023-01-25T12:36:27.182Z,2.20
2023-01-25T12:41:39.754Z,2.20
2023-01-25T12:46:51.245Z,2.10
2023-01-25T12:51:59.013Z,2.10
2023-01-25T12:57:14.289Z,1.80
2023-01-25T13:02:42.059Z,1.70
2023-01-25T13:07:54.659Z,1.70
2023-01-25T13:13:03.282Z,1.80
2023-01-25T13:18:40.940Z,2.00
2023-01-25T13:23:50.788Z,1.80
2023-01-25T13:28:55.422Z,1.80
2023-01-25T13:34:00.318Z,1.80
2023-01-25T13:39:38.008Z,2.00
2023-01-25T13:44:44.716Z,1.80
2023-01-25T13:49:54.029Z,1.70
2023-01-25T13:54:59.720Z,1.70
2023-01-25T14:00:11.505Z,1.80
2023-01-25T14:05:19.542Z,1.60
2023-01-25T14:10:26.634Z,1.60
2023-01-25T14:15:32.671Z,1.50
2023-01-25T14:20:36.047Z,1.60
2023-01-25T14:25:41.022Z,1.50
2023-01-25T14:30:51.308Z,1.50
2023-01-25T14:36:16.283Z,1.60
2023-01-25T14:41:30.549Z,1.40
2023-01-25T14:46:37.131Z,1.40
2023-01-25T14:51:43.541Z,1.60
2023-01-25T14:56:49.191Z,1.50
2023-01-25T15:01:56.424Z,1.50
2023-01-25T15:07:09.023Z,1.40
2023-01-25T15:12:38.061Z,1.50
2023-01-25T15:17:45.643Z,1.40
2023-01-25T15:22:50.363Z,1.30
2023-01-25T15:27:54.783Z,1.40
2023-01-25T15:33:01.309Z,1.30
2023-01-25T15:38:06.153Z,1.30
2023-01-25T15:43:12.057Z,1.30
2023-01-25T15:48:20.001Z,1.40
2023-01-25T15:53:24.416Z,1.30
2023-01-25T15:58:31.492Z,1.20
2023-01-25T16:03:36.569Z,1.10
2023-01-25T16:08:40.071Z,1.10
2023-01-25T16:13:43.439Z,1.10
2023-01-25T16:18:48.927Z,1.10
2023-01-25T16:23:52.625Z,1.10
2023-01-25T16:28:56.340Z,1.20
2023-01-25T16:34:01.557Z,1.20
2023-01-25T16:39:06.792Z,1.10
2023-01-25T16:44:10.452Z,1.00
2023-01-25T16:49:18.054Z,1.20
2023-01-25T16:54:22.086Z,1.10
2023-01-25T16:59:25.641Z,1.20
2023-01-25T17:04:31.131Z,1.20
2023-01-25T17:09:34.972Z,1.20
2023-01-25T17:14:38.765Z,1.10
2023-01-25T17:19:43.547Z,1.10
2023-01-25T17:24:47.061Z,1.10
2023-01-25T17:29:50.850Z,1.20
2023-01-25T17:34:59.044Z,1.10
2023-01-25T17:40:02.483Z,1.00
2023-01-25T17:45:07.655Z,1.00
2023-01-25T17:50:14.205Z,1.00
2023-01-25T17:55:17.815Z,0.90
2023-01-25T18:00:22.438Z,1.00
2023-01-25T18:05:29.119Z,1.00
2023-01-25T18:10:33.090Z,1.10
2023-01-25T18:15:36.866Z,1.00
2023-01-25T18:20:42.024Z,1.00
2023-01-25T18:25:46.164Z,1.00
2023-01-25T18:30:52.003Z,0.90
2023-01-25T18:36:00.833Z,0.90
2023-01-25T18:41:08.180Z,0.90
2023-01-25T18:46:13.147Z,0.80
2023-01-25T18:51:18.568Z,0.90
2023-01-25T18:56:22.384Z,0.90
2023-01-25T19:01:26.382Z,1.00
2023-01-25T19:06:31.729Z,0.80
2023-01-25T19:11:35.185Z,0.80
2023-01-25T19:16:38.597Z,0.70
2023-01-25T19:21:43.423Z,0.70
2023-01-25T19:26:47.501Z,0.80
2023-01-25T19:31:51.327Z,0.80
2023-01-25T19:36:57.349Z,0.80
2023-01-25T19:42:01.183Z,0.80
2023-01-25T19:47:06.048Z,0.70
2023-01-25T19:52:11.377Z,0.70
2023-01-25T19:57:17.244Z,0.70
2023-01-25T20:02:21.485Z,0.70
2023-01-25T20:07:27.867Z,0.70
2023-01-25T20:12:31.917Z,0.60
2023-01-25T20:17:36.774Z,0.60
2023-01-25T20:22:42.221Z,0.70
2023-01-25T20:27:46.729Z,0.70
2023-01-25T20:32:50.320Z,0.70
2023-01-25T20:37:55.740Z,0.70
2023-01-25T20:42:59.250Z,0.50
2023-01-25T20:48:02.726Z,0.70
2023-01-25T20:53:07.429Z,0.70
2023-01-25T20:58:10.753Z,0.60
2023-01-25T21:03:14.023Z,0.70
2023-01-25T21:08:19.314Z,0.70
2023-01-25T21:13:23.331Z,0.70
2023-01-25T21:18:31.163Z,0.70
2023-01-25T21:23:37.361Z,0.80
2023-01-25T21:28:41.043Z,0.70
2023-01-25T21:33:44.746Z,0.70
2023-01-25T21:38:51.727Z,0.70
2023-01-25T21:44:15.142Z,0.80
2023-01-25T21:49:37.395Z,0.80
2023-01-25T21:54:41.932Z,0.90
2023-01-25T21:59:45.305Z,0.80
2023-01-25T22:04:48.736Z,0.80
2023-01-25T22:09:53.386Z,0.70
2023-01-25T22:14:56.599Z,0.80
2023-01-25T22:19:59.920Z,0.80
2023-01-25T22:25:05.534Z,0.70
2023-01-25T22:30:11.293Z,0.80
2023-01-25T22:35:14.970Z,0.70
2023-01-25T22:40:19.808Z,0.70
2023-01-25T22:45:23.293Z,0.60
2023-01-25T22:50:26.641Z,0.60
2023-01-25T22:55:31.360Z,0.50
2023-01-25T23:00:34.675Z,0.60
2023-01-25T23:05:38.208Z,0.60
2023-01-25T23:10:42.830Z,0.60
2023-01-25T23:15:46.041Z,0.70
2023-01-25T23:20:49.423Z,0.60
2023-01-25T23:25:54.153Z,0.50
2023-01-25T23:31:17.239Z,0.70
2023-01-25T23:36:22.910Z,0.60
2023-01-25T23:41:29.216Z,0.50
2023-01-25T23:46:32.473Z,0.70
2023-01-25T23:51:35.709Z,0.60
2023-01-25T23:56:40.234Z,0.70
